Time;durP1;ratioP1;P1;durP2;ratioP2;P2;SDS_P1;SDS_P2;PMS_P1;PMS_P2;Temp;Humidity;BMP_temperature;BMP_pressure;BME280_temperature;BME280_humidity;BME280_pressure;Samples;Min_cycle;Max_cycle;Signal;HPM_P1;HPM_P2
2023/04/24 00:01:00;;;;;;;8.23;7.53;;;12.80;99.90;;;;;;5015282;28;21018;-62
2023/04/24 00:03:29;;;;;;;8.40;7.70;;;12.70;99.90;;;;;;5010428;28;20479;-62
2023/04/24 00:06:00;;;;;;;8.60;7.80;;;12.70;99.90;;;;;;5016464;28;20558;-62
2023/04/24 00:08:28;;;;;;;8.17;7.47;;;12.70;99.90;;;;;;5011891;28;20495;-61
2023/04/24 00:10:56;;;;;;;8.10;7.50;;;12.70;99.90;;;;;;5012782;28;20479;-62
2023/04/24 00:13:24;;;;;;;8.27;7.67;;;12.70;99.90;;;;;;5013940;28;20474;-62
2023/04/24 00:15:52;;;;;;;8.47;7.77;;;12.70;99.90;;;;;;5016780;28;20468;-62
2023/04/24 00:18:20;;;;;;;8.63;7.93;;;12.70;99.90;;;;;;5013139;28;21013;-62
2023/04/24 00:20:48;;;;;;;8.30;7.60;;;12.70;99.90;;;;;;5012152;28;20471;-63
2023/04/24 00:23:17;;;;;;;8.27;7.57;;;12.70;99.90;;;;;;5010213;28;20463;-62
2023/04/24 00:25:45;;;;;;;8.33;7.53;;;12.70;99.90;;;;;;5019934;28;21119;-62
2023/04/24 00:28:13;;;;;;;8.20;7.60;;;12.70;99.90;;;;;;5015464;28;20605;-62
2023/04/24 00:30:41;;;;;;;8.03;7.33;;;12.70;99.90;;;;;;5013252;28;20486;-62
2023/04/24 00:33:11;;;;;;;8.50;7.90;;;12.70;99.90;;;;;;5013668;28;20491;-62
2023/04/24 00:35:38;;;;;;;7.70;7.10;;;12.60;99.90;;;;;;5012237;28;20471;-62
2023/04/24 00:38:07;;;;;;;8.40;7.80;;;12.60;99.90;;;;;;5014447;28;20474;-61
2023/04/24 00:40:36;;;;;;;7.83;7.13;;;12.60;99.90;;;;;;5014231;28;20471;-62
2023/04/24 00:43:04;;;;;;;8.40;7.60;;;12.60;99.90;;;;;;5011698;28;20483;-62
2023/04/24 00:45:32;;;;;;;7.53;6.93;;;12.50;99.90;;;;;;5012662;28;20551;-62
2023/04/24 00:48:01;;;;;;;8.10;7.40;;;12.60;99.90;;;;;;5012648;28;20468;-62
2023/04/24 00:50:30;;;;;;;7.30;6.70;;;12.50;99.90;;;;;;5012024;28;20491;-61
2023/04/24 00:52:58;;;;;;;8.13;7.50;;;12.60;99.90;;;;;;5013023;28;20492;-62
2023/04/24 00:55:26;;;;;;;7.97;7.27;;;12.60;99.90;;;;;;5009090;28;20582;-62
2023/04/24 00:57:56;;;;;;;8.57;7.87;;;12.50;99.90;;;;;;5009115;28;20483;-62
2023/04/24 01:00:25;;;;;;;8.63;7.90;;;12.50;99.90;;;;;;5014497;28;20498;-63
2023/04/24 01:02:53;;;;;;;8.50;7.83;;;12.50;99.90;;;;;;5018656;28;21000;-63
2023/04/24 01:05:22;;;;;;;8.50;7.90;;;12.50;99.90;;;;;;5007058;28;20471;-62
2023/04/24 01:07:50;;;;;;;8.70;8.00;;;12.50;99.90;;;;;;5012202;28;20474;-61
2023/04/24 01:10:20;;;;;;;9.20;8.40;;;12.50;99.90;;;;;;5011665;28;21024;-62
2023/04/24 01:12:48;;;;;;;8.83;8.10;;;12.50;99.90;;;;;;5012976;28;20974;-62
2023/04/24 01:15:17;;;;;;;8.37;7.60;;;12.50;99.90;;;;;;5018821;28;20470;-62
2023/04/24 01:17:45;;;;;;;7.70;7.10;;;12.50;99.90;;;;;;5015596;28;20480;-62
2023/04/24 01:20:15;;;;;;;7.83;7.03;;;12.40;99.90;;;;;;5011899;28;20621;-62
2023/04/24 01:22:44;;;;;;;7.83;7.23;;;12.40;99.90;;;;;;5015845;28;20498;-61
2023/04/24 01:25:12;;;;;;;8.40;7.77;;;12.40;99.90;;;;;;5015315;28;20478;-61
2023/04/24 01:27:40;;;;;;;7.30;6.80;;;12.40;99.90;;;;;;5014752;28;20964;-62
2023/04/24 01:30:10;;;;;;;6.93;6.33;;;12.40;99.90;;;;;;5014839;28;20894;-62
2023/04/24 01:32:38;;;;;;;7.53;6.80;;;12.40;99.90;;;;;;5017205;28;20491;-62
2023/04/24 01:35:08;;;;;;;7.47;6.83;;;12.40;99.90;;;;;;5016912;28;20526;-62
2023/04/24 01:37:37;;;;;;;7.90;6.40;;;12.30;99.90;;;;;;5014800;28;20475;-61
2023/04/24 01:40:08;;;;;;;7.40;6.90;;;12.30;99.90;;;;;;5010727;28;20498;-62
2023/04/24 01:42:36;;;;;;;7.10;6.50;;;12.30;99.90;;;;;;5015348;28;20495;-61
2023/04/24 01:45:06;;;;;;;6.40;5.80;;;12.30;99.90;;;;;;5016024;28;20476;-61
2023/04/24 01:47:33;;;;;;;7.00;6.30;;;12.30;99.90;;;;;;5015659;28;20493;-61
2023/04/24 01:50:01;;;;;;;6.13;5.40;;;12.30;99.90;;;;;;5013462;28;20495;-62
2023/04/24 01:52:31;;;;;;;6.47;5.83;;;12.40;99.90;;;;;;5011915;28;20494;-62
2023/04/24 01:55:01;;;;;;;5.70;5.20;;;12.30;99.90;;;;;;5009707;28;20476;-61
2023/04/24 01:57:31;;;;;;;5.73;5.23;;;12.30;99.90;;;;;;5015028;28;20483;-62
2023/04/24 01:59:59;;;;;;;6.13;5.63;;;12.30;99.90;;;;;;5011672;28;20514;-62
2023/04/24 02:02:28;;;;;;;7.73;4.90;;;12.30;99.90;;;;;;5011058;28;20490;-61
2023/04/24 02:04:56;;;;;;;5.67;5.27;;;12.20;99.90;;;;;;5014406;28;20558;-62
2023/04/24 02:07:24;;;;;;;4.97;4.67;;;12.20;99.90;;;;;;5011476;28;20467;-61
2023/04/24 02:09:52;;;;;;;5.30;4.90;;;12.20;99.90;;;;;;5012165;28;20500;-62
2023/04/24 02:12:20;;;;;;;5.30;4.90;;;12.20;99.90;;;;;;5009669;28;20499;-62
2023/04/24 02:14:50;;;;;;;4.83;4.43;;;12.20;99.90;;;;;;5013940;28;20863;-62
2023/04/24 02:17:18;;;;;;;5.00;4.50;;;12.20;99.90;;;;;;5010463;28;20479;-62
2023/04/24 02:19:46;;;;;;;4.87;4.47;;;12.20;99.90;;;;;;5013704;28;20550;-62
2023/04/24 02:22:15;;;;;;;3.90;3.60;;;12.20;99.90;;;;;;5011933;28;20499;-62
2023/04/24 02:24:43;;;;;;;3.50;3.30;;;12.10;99.90;;;;;;5016220;28;20497;-62
2023/04/24 02:27:11;;;;;;;3.87;3.57;;;12.10;99.90;;;;;;5014311;28;20832;-61
2023/04/24 02:29:39;;;;;;;3.57;3.33;;;12.10;99.90;;;;;;5016802;28;20502;-61
2023/04/24 02:32:11;;;;;;;4.87;3.40;;;12.10;99.90;;;;;;5015546;28;20479;-62
2023/04/24 02:34:39;;;;;;;3.70;3.50;;;12.10;99.90;;;;;;5022170;28;20467;-62
2023/04/24 02:37:07;;;;;;;3.33;3.13;;;12.10;99.90;;;;;;5021555;28;20973;-62
2023/04/24 02:39:35;;;;;;;5.13;3.47;;;12.10;99.90;;;;;;5015349;28;21172;-62
2023/04/24 02:42:03;;;;;;;3.63;3.43;;;12.00;99.90;;;;;;5012560;28;20490;-61
2023/04/24 02:44:30;;;;;;;4.43;4.03;;;12.10;99.90;;;;;;5010879;28;20486;-62
2023/04/24 02:46:58;;;;;;;3.63;3.43;;;12.00;99.90;;;;;;5014040;28;20478;-62
2023/04/24 02:49:28;;;;;;;4.03;3.73;;;12.00;99.90;;;;;;5019279;28;20491;-62
2023/04/24 02:51:56;;;;;;;4.57;4.27;;;12.00;99.90;;;;;;5013468;28;20866;-61
2023/04/24 02:54:23;;;;;;;4.33;4.00;;;12.00;99.90;;;;;;5016086;28;20494;-62
2023/04/24 02:56:54;;;;;;;4.47;4.17;;;12.00;99.90;;;;;;5023591;28;20471;-61
2023/04/24 02:59:22;;;;;;;4.27;3.90;;;11.90;99.90;;;;;;5026766;28;20487;-62
2023/04/24 03:01:53;;;;;;;4.07;3.77;;;11.90;99.90;;;;;;5027680;28;20486;-62
2023/04/24 03:04:22;;;;;;;3.80;3.60;;;11.90;99.90;;;;;;5020513;28;20485;-62
2023/04/24 03:06:52;;;;;;;4.10;3.80;;;11.90;99.90;;;;;;5022123;28;20824;-64
2023/04/24 03:09:20;;;;;;;3.97;3.70;;;11.80;99.90;;;;;;5017856;28;20491;-62
2023/04/24 03:11:49;;;;;;;3.73;3.50;;;11.80;99.90;;;;;;5014705;28;20521;-62
2023/04/24 03:14:17;;;;;;;3.50;3.30;;;11.80;99.90;;;;;;5015185;28;21135;-62
2023/04/24 03:16:45;;;;;;;3.43;3.23;;;11.80;99.90;;;;;;5018596;28;20479;-62
2023/04/24 03:19:13;;;;;;;3.87;3.33;;;11.80;99.90;;;;;;5019546;28;20491;-65
2023/04/24 03:21:41;;;;;;;5.13;3.10;;;11.80;99.90;;;;;;5023757;28;20869;-62
2023/04/24 03:24:10;;;;;;;3.93;3.60;;;11.70;99.90;;;;;;5022683;28;20478;-64
2023/04/24 03:26:38;;;;;;;3.23;3.03;;;11.70;99.90;;;;;;5025805;28;20475;-62
2023/04/24 03:29:06;;;;;;;2.97;2.77;;;11.70;99.90;;;;;;5018671;28;20499;-62
2023/04/24 03:31:34;;;;;;;3.97;3.67;;;11.60;99.90;;;;;;5016055;28;20480;-62
2023/04/24 03:34:02;;;;;;;3.87;2.60;;;11.60;99.90;;;;;;5023190;28;20914;-61
2023/04/24 03:36:31;;;;;;;2.60;2.40;;;11.60;99.90;;;;;;5019140;28;20867;-61
2023/04/24 03:38:59;;;;;;;2.87;2.67;;;11.60;99.90;;;;;;5017598;28;20861;-62
2023/04/24 03:41:28;;;;;;;3.80;3.50;;;11.60;99.90;;;;;;5022759;28;20502;-62
2023/04/24 03:43:56;;;;;;;3.07;2.87;;;11.60;99.90;;;;;;5018127;28;20554;-62
2023/04/24 03:46:24;;;;;;;2.87;2.67;;;11.50;99.90;;;;;;5021148;28;20463;-61
2023/04/24 03:48:52;;;;;;;3.20;3.00;;;11.50;99.90;;;;;;5024783;28;20488;-62
2023/04/24 03:51:21;;;;;;;3.10;2.90;;;11.50;99.90;;;;;;5024873;28;20475;-61
2023/04/24 03:53:49;;;;;;;3.53;3.30;;;11.50;99.90;;;;;;5013812;28;20498;-62
2023/04/24 03:56:17;;;;;;;2.90;2.70;;;11.40;99.90;;;;;;5016987;28;20472;-62
2023/04/24 03:58:46;;;;;;;3.00;2.80;;;11.40;99.90;;;;;;5017812;28;20901;-62
2023/04/24 04:01:15;;;;;;;2.90;2.70;;;11.30;99.90;;;;;;5017638;28;20481;-62
2023/04/24 04:03:43;;;;;;;3.37;3.17;;;11.30;99.90;;;;;;5016185;28;20492;-62
2023/04/24 04:06:12;;;;;;;3.40;3.10;;;11.30;99.90;;;;;;5017423;28;20482;-62
2023/04/24 04:08:40;;;;;;;2.97;2.67;;;11.30;99.90;;;;;;5015603;28;20491;-62
2023/04/24 04:11:08;;;;;;;3.60;3.30;;;11.30;99.90;;;;;;5018093;28;20487;-61
2023/04/24 04:13:39;;;;;;;3.30;3.00;;;11.30;99.90;;;;;;5018765;28;20483;-62
2023/04/24 04:16:09;;;;;;;2.70;2.50;;;11.20;99.90;;;;;;5018080;28;20844;-62
2023/04/24 04:18:37;;;;;;;2.70;2.50;;;11.20;99.90;;;;;;5013383;28;20970;-62
2023/04/24 04:21:05;;;;;;;2.50;2.40;;;11.20;99.90;;;;;;5014040;28;21066;-62
2023/04/24 04:23:33;;;;;;;2.63;2.43;;;11.20;99.90;;;;;;5017504;28;20464;-62
2023/04/24 04:26:01;;;;;;;2.30;2.20;;;11.20;99.90;;;;;;5013897;28;20602;-62
2023/04/24 04:28:30;;;;;;;2.60;2.40;;;11.20;99.90;;;;;;5011700;28;20495;-62
2023/04/24 04:30:58;;;;;;;2.73;2.53;;;11.20;99.90;;;;;;5015990;28;20526;-62
2023/04/24 04:33:28;;;;;;;2.30;2.10;;;11.20;99.90;;;;;;5015109;28;20468;-62
2023/04/24 04:35:57;;;;;;;2.47;2.37;;;11.20;99.90;;;;;;5016714;28;20467;-62
2023/04/24 04:38:26;;;;;;;2.30;2.10;;;11.10;99.90;;;;;;5011556;28;20486;-63
2023/04/24 04:40:56;;;;;;;2.10;2.00;;;11.20;99.90;;;;;;5007694;28;20492;-61
2023/04/24 04:43:24;;;;;;;2.67;2.53;;;11.20;99.90;;;;;;5006722;28;20467;-62
2023/04/24 04:45:54;;;;;;;2.50;2.30;;;11.20;99.90;;;;;;5013364;28;20471;-62
2023/04/24 04:48:22;;;;;;;2.03;1.93;;;11.20;99.90;;;;;;5010588;28;20471;-62
2023/04/24 04:50:51;;;;;;;3.10;2.53;;;11.20;99.90;;;;;;5012239;28;20496;-62
2023/04/24 04:53:19;;;;;;;2.40;2.20;;;11.20;99.90;;;;;;5014626;28;20476;-62
2023/04/24 04:55:48;;;;;;;2.20;2.00;;;11.20;99.90;;;;;;5018264;28;20483;-62
2023/04/24 04:58:16;;;;;;;3.43;2.13;;;11.30;99.90;;;;;;5012677;28;20483;-62
2023/04/24 05:00:44;;;;;;;2.07;1.87;;;11.40;99.90;;;;;;5014287;28;20468;-62
2023/04/24 05:03:11;;;;;;;2.30;2.10;;;11.40;99.90;;;;;;5008274;28;20484;-62
2023/04/24 05:05:48;;;;;;;2.50;2.40;;;11.40;99.90;;;;;;5012699;28;20558;-61
2023/04/24 05:08:18;;;;;;;3.17;2.20;;;11.50;99.90;;;;;;5018351;28;20471;-61
2023/04/24 05:10:54;;;;;;;2.50;2.30;;;11.40;99.90;;;;;;5014227;28;20482;-61
2023/04/24 05:13:22;;;;;;;2.57;2.37;;;11.50;99.90;;;;;;5011706;28;20467;-62
2023/04/24 05:16:05;;;;;;;2.50;2.30;;;11.50;99.90;;;;;;5012692;28;20467;-61
2023/04/24 05:18:33;;;;;;;2.30;2.10;;;11.40;99.90;;;;;;5005309;28;20545;-61
2023/04/24 05:21:01;;;;;;;2.47;2.17;;;11.40;99.90;;;;;;5003452;28;20492;-61
2023/04/24 05:23:31;;;;;;;2.37;2.17;;;11.40;99.90;;;;;;5007764;28;21003;-62
2023/04/24 05:25:59;;;;;;;1.93;1.83;;;11.40;99.90;;;;;;5008931;28;20472;-61
2023/04/24 05:28:28;;;;;;;1.97;1.87;;;11.40;99.90;;;;;;5008028;28;20479;-62
2023/04/24 05:30:56;;;;;;;2.67;2.00;;;11.50;99.90;;;;;;4995590;28;20499;-62
2023/04/24 05:33:24;;;;;;;2.33;2.13;;;11.50;99.90;;;;;;4998335;28;20464;-63
2023/04/24 05:35:52;;;;;;;3.00;1.80;;;11.60;99.90;;;;;;5007655;28;20502;-64
2023/04/24 05:38:20;;;;;;;2.57;2.00;;;11.60;99.90;;;;;;5007098;28;20470;-61
2023/04/24 05:40:50;;;;;;;2.10;2.00;;;11.60;99.90;;;;;;5000362;28;20482;-61
2023/04/24 05:43:18;;;;;;;2.00;1.90;;;11.70;99.90;;;;;;5009494;28;20472;-62
2023/04/24 05:45:46;;;;;;;2.10;2.00;;;11.70;99.90;;;;;;5008137;28;20463;-61
2023/04/24 05:48:14;;;;;;;2.17;2.07;;;11.70;99.90;;;;;;5012935;28;20482;-62
2023/04/24 05:50:42;;;;;;;2.40;2.00;;;11.70;99.90;;;;;;5009836;28;20468;-63
2023/04/24 05:53:10;;;;;;;2.37;2.27;;;11.70;99.90;;;;;;5016468;28;20476;-62
2023/04/24 05:55:38;;;;;;;2.17;2.07;;;11.70;99.90;;;;;;5016964;28;20587;-62
2023/04/24 05:58:07;;;;;;;2.57;2.37;;;11.70;99.90;;;;;;5019689;28;20467;-61
2023/04/24 06:00:36;;;;;;;2.43;2.23;;;11.70;99.90;;;;;;5018779;28;20494;-61
2023/04/24 06:03:03;;;;;;;2.43;2.23;;;11.70;99.90;;;;;;5018447;28;20490;-61
2023/04/24 06:05:34;;;;;;;2.50;2.40;;;11.70;99.90;;;;;;5018272;28;20473;-61
2023/04/24 06:08:02;;;;;;;2.73;2.53;;;11.70;99.90;;;;;;5020438;28;20471;-61
2023/04/24 06:10:30;;;;;;;2.30;2.10;;;11.80;99.90;;;;;;5022727;28;20483;-61
2023/04/24 06:13:00;;;;;;;2.40;2.30;;;11.80;99.90;;;;;;5020522;28;20471;-62
2023/04/24 06:15:31;;;;;;;2.50;2.40;;;11.80;99.90;;;;;;5014545;28;20495;-62
2023/04/24 06:17:59;;;;;;;2.80;2.60;;;11.90;99.90;;;;;;5017441;28;20488;-61
2023/04/24 06:20:27;;;;;;;2.43;2.33;;;11.90;99.90;;;;;;5017622;28;20497;-61
2023/04/24 06:22:55;;;;;;;2.83;2.30;;;12.00;99.90;;;;;;5015423;28;20471;-61
2023/04/24 06:25:24;;;;;;;3.80;2.40;;;12.00;99.90;;;;;;5017652;28;20876;-61
2023/04/24 06:27:52;;;;;;;2.37;2.20;;;12.00;99.90;;;;;;5017500;28;20483;-61
2023/04/24 06:30:20;;;;;;;2.63;2.37;;;12.00;99.90;;;;;;5014013;28;20499;-61
2023/04/24 06:32:49;;;;;;;2.83;2.30;;;12.00;99.90;;;;;;5016886;28;20552;-61
2023/04/24 06:35:18;;;;;;;2.40;2.20;;;12.00;99.90;;;;;;5016555;28;20494;-61
2023/04/24 06:37:45;;;;;;;2.40;2.20;;;12.10;99.90;;;;;;5016332;28;20471;-61
2023/04/24 06:40:14;;;;;;;2.80;2.60;;;12.10;99.90;;;;;;5017223;28;20515;-61
2023/04/24 06:42:42;;;;;;;2.43;2.23;;;12.20;99.90;;;;;;5014764;28;20487;-62
2023/04/24 06:45:11;;;;;;;3.17;2.80;;;12.20;99.90;;;;;;5013966;28;20806;-65
2023/04/24 06:47:39;;;;;;;2.93;2.73;;;12.20;99.90;;;;;;5029289;28;20551;-63
2023/04/24 06:50:09;;;;;;;2.90;2.70;;;12.30;99.90;;;;;;5029137;28;20513;-61
2023/04/24 06:52:37;;;;;;;3.13;2.73;;;12.30;99.90;;;;;;5021609;28;21001;-62
2023/04/24 06:55:06;;;;;;;3.10;2.80;;;12.30;99.90;;;;;;5017959;28;20487;-62
2023/04/24 06:57:34;;;;;;;2.63;2.43;;;12.40;99.90;;;;;;5015968;28;20469;-62
2023/04/24 07:00:03;;;;;;;3.13;2.30;;;12.50;99.90;;;;;;5006419;28;20865;-62
2023/04/24 07:02:31;;;;;;;3.20;3.00;;;12.50;99.90;;;;;;5012685;28;20487;-62
2023/04/24 07:04:59;;;;;;;3.30;2.40;;;12.50;99.90;;;;;;5010693;28;20504;-62
2023/04/24 07:07:28;;;;;;;4.10;3.00;;;12.60;99.90;;;;;;5016774;28;20522;-62
2023/04/24 07:09:58;;;;;;;3.07;2.87;;;12.60;99.90;;;;;;5008705;28;20502;-62
2023/04/24 07:12:26;;;;;;;3.00;2.80;;;12.70;99.90;;;;;;5013126;28;20491;-62
2023/04/24 07:14:54;;;;;;;3.30;3.03;;;12.70;99.90;;;;;;5004506;28;20479;-61
2023/04/24 07:17:22;;;;;;;3.60;3.30;;;12.70;99.90;;;;;;5012861;28;20486;-61
2023/04/24 07:19:49;;;;;;;3.63;3.40;;;12.70;99.90;;;;;;5013299;28;20488;-62
2023/04/24 07:22:18;;;;;;;3.90;3.60;;;12.80;99.90;;;;;;5016508;28;20497;-61
2023/04/24 07:24:47;;;;;;;4.00;3.70;;;12.80;99.90;;;;;;5014867;28;20480;-61
2023/04/24 07:27:15;;;;;;;3.80;3.60;;;12.80;99.90;;;;;;5018684;28;20463;-62
2023/04/24 07:29:43;;;;;;;4.37;4.00;;;12.80;99.90;;;;;;5005115;28;20542;-61
2023/04/24 07:32:13;;;;;;;4.00;3.77;;;12.90;99.90;;;;;;5004193;28;20578;-62
2023/04/24 07:34:41;;;;;;;4.47;4.07;;;12.90;99.90;;;;;;5015737;28;20482;-62
2023/04/24 07:37:09;;;;;;;4.20;3.90;;;13.00;99.90;;;;;;5010585;28;20484;-61
2023/04/24 07:39:37;;;;;;;3.57;3.37;;;13.00;99.90;;;;;;5016527;28;20505;-62
2023/04/24 07:42:06;;;;;;;3.50;3.20;;;13.00;99.90;;;;;;5018759;28;20520;-61
2023/04/24 07:44:34;;;;;;;4.80;4.50;;;13.00;99.90;;;;;;5013262;28;21011;-62
2023/04/24 07:47:02;;;;;;;4.40;4.10;;;13.10;99.90;;;;;;5013413;28;20470;-61
2023/04/24 07:49:30;;;;;;;4.97;4.57;;;13.10;99.90;;;;;;5014665;28;20522;-62
2023/04/24 07:52:00;;;;;;;4.90;4.60;;;13.00;99.90;;;;;;5013471;28;20483;-61
2023/04/24 07:54:28;;;;;;;5.63;5.23;;;13.10;99.90;;;;;;5015885;28;20570;-62
2023/04/24 07:56:56;;;;;;;5.30;4.90;;;13.10;99.90;;;;;;5015480;28;20495;-62
2023/04/24 07:59:25;;;;;;;6.27;5.73;;;13.20;99.90;;;;;;5014700;28;20502;-63
2023/04/24 08:01:54;;;;;;;5.53;5.13;;;13.30;99.90;;;;;;5010646;28;20494;-62
2023/04/24 08:04:22;;;;;;;6.33;5.83;;;13.30;99.90;;;;;;5011677;28;20525;-62
2023/04/24 08:06:50;;;;;;;6.27;5.80;;;13.30;99.90;;;;;;5011981;28;20847;-61
2023/04/24 08:09:18;;;;;;;5.13;4.80;;;13.30;99.90;;;;;;5016985;28;20498;-61
2023/04/24 08:11:46;;;;;;;6.23;5.73;;;13.30;99.90;;;;;;5016461;28;20614;-61
2023/04/24 08:14:14;;;;;;;5.80;5.40;;;13.30;99.90;;;;;;5012029;28;20489;-61
2023/04/24 08:16:44;;;;;;;6.17;5.67;;;13.20;99.90;;;;;;5012434;28;20503;-61
2023/04/24 08:19:12;;;;;;;5.77;5.27;;;13.20;99.90;;;;;;5015275;28;20906;-61
2023/04/24 08:21:40;;;;;;;6.00;5.60;;;13.20;99.90;;;;;;5013825;28;20498;-62
2023/04/24 08:24:08;;;;;;;6.17;5.57;;;13.20;99.90;;;;;;5014839;28;20505;-62
2023/04/24 08:26:36;;;;;;;6.80;6.30;;;13.20;99.90;;;;;;5016532;28;20461;-62
2023/04/24 08:29:04;;;;;;;6.70;6.17;;;13.10;99.90;;;;;;5016378;28;20535;-62
2023/04/24 08:31:32;;;;;;;6.63;6.03;;;13.10;99.90;;;;;;5010071;28;20522;-62
2023/04/24 08:34:01;;;;;;;6.63;6.17;;;13.10;99.90;;;;;;5005743;28;20851;-62
2023/04/24 08:36:30;;;;;;;6.73;6.27;;;13.10;99.90;;;;;;5005065;28;20908;-63
2023/04/24 08:39:13;;;;;;;6.97;6.37;;;13.10;99.90;;;;;;5026032;28;20519;-67
2023/04/24 08:41:42;;;;;;;7.23;6.63;;;13.10;99.90;;;;;;5013165;28;20499;-63
2023/04/24 08:44:11;;;;;;;6.90;6.30;;;13.00;99.90;;;;;;5006935;28;20997;-63
2023/04/24 08:46:41;;;;;;;6.43;5.93;;;13.00;99.90;;;;;;5009006;28;20479;-63
2023/04/24 08:49:10;;;;;;;6.60;6.10;;;12.90;99.90;;;;;;5004491;28;23192;-62
2023/04/24 08:51:39;;;;;;;6.40;5.90;;;12.90;99.90;;;;;;5006446;28;20495;-62
2023/04/24 08:54:07;;;;;;;7.10;6.60;;;12.90;99.90;;;;;;4999956;28;20478;-63
2023/04/24 08:56:39;;;;;;;6.90;6.40;;;12.90;99.90;;;;;;5002967;28;20492;-62
2023/04/24 08:59:07;;;;;;;6.83;6.33;;;12.90;99.90;;;;;;5007114;28;20498;-62
2023/04/24 09:01:39;;;;;;;7.17;6.60;;;13.00;99.90;;;;;;4997682;28;20483;-63
2023/04/24 09:04:11;;;;;;;7.50;6.90;;;13.00;99.90;;;;;;5008254;28;20500;-63
2023/04/24 09:06:40;;;;;;;8.10;7.50;;;13.00;99.90;;;;;;5006899;28;20973;-63
2023/04/24 09:09:09;;;;;;;8.17;7.47;;;13.00;99.90;;;;;;5011019;28;20494;-63
2023/04/24 09:11:38;;;;;;;7.70;7.07;;;13.00;99.90;;;;;;5005178;28;20503;-63
2023/04/24 09:14:07;;;;;;;7.97;7.37;;;13.10;99.90;;;;;;5002479;28;20554;-63
2023/04/24 09:16:36;;;;;;;8.10;7.33;;;13.20;99.90;;;;;;5009141;28;20487;-62
2023/04/24 09:19:04;;;;;;;8.27;7.67;;;13.30;99.90;;;;;;5007778;28;20487;-63
2023/04/24 09:21:34;;;;;;;7.57;6.87;;;13.40;99.90;;;;;;5003089;28;20595;-62
2023/04/24 09:24:04;;;;;;;8.70;8.00;;;13.40;99.90;;;;;;5005143;28;20471;-62
2023/04/24 09:26:33;;;;;;;8.00;7.30;;;13.40;99.90;;;;;;5006494;28;20948;-63
2023/04/24 09:29:01;;;;;;;8.97;8.20;;;13.30;99.90;;;;;;5001807;28;20498;-63
2023/04/24 09:31:30;;;;;;;7.90;7.30;;;13.30;99.90;;;;;;5004521;28;20487;-63
2023/04/24 09:34:01;;;;;;;8.17;7.43;;;13.30;99.90;;;;;;5006070;28;20502;-62
2023/04/24 09:36:33;;;;;;;7.30;6.70;;;13.20;99.90;;;;;;4992744;28;20498;-62
2023/04/24 09:39:05;;;;;;;7.60;6.87;;;13.20;99.90;;;;;;4995263;28;20579;-62
2023/04/24 09:41:33;;;;;;;7.23;6.63;;;13.20;99.90;;;;;;4994287;28;22030;-62
2023/04/24 09:44:13;;;;;;;7.00;6.50;;;13.20;99.90;;;;;;5003116;28;20479;-62
2023/04/24 09:46:42;;;;;;;7.37;6.83;;;13.20;99.90;;;;;;5008857;28;20459;-62
2023/04/24 09:49:14;;;;;;;8.17;7.37;;;13.20;99.90;;;;;;4999571;28;20578;-62
2023/04/24 09:51:43;;;;;;;7.30;6.70;;;13.20;99.90;;;;;;5001787;28;20535;-62
2023/04/24 09:54:16;;;;;;;7.53;6.83;;;13.20;99.90;;;;;;5003980;28;20471;-62
2023/04/24 09:56:46;;;;;;;7.90;7.20;;;13.10;99.90;;;;;;5000836;28;20533;-63
2023/04/24 09:59:14;;;;;;;7.50;6.90;;;13.20;99.90;;;;;;5007560;28;20491;-62
2023/04/24 10:01:44;;;;;;;7.13;6.53;;;13.20;99.90;;;;;;5001838;28;21047;-62
2023/04/24 10:04:19;;;;;;;7.77;7.07;;;13.10;99.90;;;;;;5006674;28;20931;-62
2023/04/24 10:06:49;;;;;;;8.00;7.30;;;13.10;99.90;;;;;;5017047;28;20705;-62
2023/04/24 10:09:20;;;;;;;9.43;8.73;;;13.00;99.90;;;;;;5022910;28;20990;-63
2023/04/24 10:11:50;;;;;;;9.40;8.60;;;13.00;99.90;;;;;;5017413;28;20595;-63
2023/04/24 10:14:20;;;;;;;9.17;8.47;;;13.00;99.90;;;;;;5016664;28;20468;-62
2023/04/24 10:16:49;;;;;;;8.73;8.00;;;12.90;99.90;;;;;;5010531;28;20892;-63
2023/04/24 10:19:19;;;;;;;9.20;8.43;;;12.90;99.90;;;;;;5009984;28;20515;-63
2023/04/24 10:21:48;;;;;;;10.43;9.43;;;12.90;99.90;;;;;;5010839;28;21049;-62
2023/04/24 10:24:20;;;;;;;9.87;8.90;;;12.90;99.90;;;;;;5007886;28;20581;-62
2023/04/24 10:26:48;;;;;;;9.93;9.03;;;12.90;99.90;;;;;;5010342;28;20470;-63
2023/04/24 10:29:21;;;;;;;10.50;9.30;;;12.90;99.90;;;;;;5011705;28;20978;-62
2023/04/24 10:31:49;;;;;;;10.33;9.43;;;13.00;99.90;;;;;;5014513;28;20799;-63
2023/04/24 10:34:20;;;;;;;10.93;9.80;;;13.00;99.90;;;;;;5013712;28;20793;-62
2023/04/24 10:36:52;;;;;;;10.67;9.57;;;13.00;99.90;;;;;;5016895;28;20471;-62
2023/04/24 10:39:24;;;;;;;10.40;9.50;;;13.00;99.90;;;;;;5014542;28;20490;-62
2023/04/24 10:41:57;;;;;;;10.23;9.43;;;13.00;99.90;;;;;;5018513;28;20875;-63
2023/04/24 10:44:26;;;;;;;11.03;10.03;;;13.10;99.90;;;;;;5025885;28;20475;-61
2023/04/24 10:46:56;;;;;;;11.30;10.37;;;13.10;99.90;;;;;;5028866;28;20471;-61
2023/04/24 10:49:30;;;;;;;11.13;10.17;;;13.10;99.90;;;;;;5028546;28;20495;-62
2023/04/24 10:52:02;;;;;;;13.20;12.00;;;13.10;99.90;;;;;;5008365;28;20499;-62
2023/04/24 10:54:36;;;;;;;12.30;11.20;;;13.10;99.90;;;;;;5013363;28;21174;-61
2023/04/24 10:57:37;;;;;;;11.50;10.40;;;13.10;99.90;;;;;;5016688;28;20490;-61
2023/04/24 11:00:15;;;;;;;11.67;10.57;;;13.10;99.90;;;;;;4955113;28;21139;-62
2023/04/24 11:02:48;;;;;;;11.40;10.40;;;13.10;99.90;;;;;;4954776;28;20490;-61
2023/04/24 11:05:17;;;;;;;11.80;10.80;;;13.10;99.90;;;;;;4989166;28;21098;-61
2023/04/24 11:08:11;;;;;;;10.97;10.03;;;13.10;99.90;;;;;;5013798;28;20470;-61
2023/04/24 11:10:44;;;;;;;12.17;10.93;;;13.20;99.90;;;;;;5012080;28;20551;-62
2023/04/24 11:13:16;;;;;;;12.63;11.53;;;13.20;99.90;;;;;;5013148;28;20486;-62
2023/04/24 11:15:44;;;;;;;12.03;11.03;;;13.30;99.90;;;;;;5014763;28;20529;-62
2023/04/24 11:18:15;;;;;;;12.60;11.40;;;13.30;99.90;;;;;;5008651;28;20494;-62
2023/04/24 11:20:44;;;;;;;12.20;11.00;;;13.40;99.90;;;;;;5005487;28;20482;-61
2023/04/24 11:23:14;;;;;;;13.63;11.40;;;13.40;99.90;;;;;;5011055;28;20501;-61
2023/04/24 11:25:44;;;;;;;11.47;10.47;;;13.40;99.90;;;;;;5014450;28;20472;-61
2023/04/24 11:28:17;;;;;;;11.80;10.67;;;13.50;99.90;;;;;;5011542;28;20479;-61
2023/04/24 11:30:45;;;;;;;11.60;10.40;;;13.60;99.90;;;;;;5013249;28;20468;-62
2023/04/24 11:33:20;;;;;;;11.33;10.23;;;13.50;99.90;;;;;;5010706;28;20478;-61
2023/04/24 11:35:48;;;;;;;10.97;9.93;;;13.60;99.90;;;;;;5011219;28;20471;-62
2023/04/24 11:38:18;;;;;;;10.07;9.20;;;13.60;99.90;;;;;;5012398;28;20491;-61
2023/04/24 11:40:54;;;;;;;10.40;9.50;;;13.80;99.90;;;;;;5010577;28;20578;-61
2023/04/24 11:43:22;;;;;;;10.27;9.33;;;13.80;99.90;;;;;;5014188;28;20463;-61
2023/04/24 11:45:50;;;;;;;10.93;9.93;;;14.00;99.90;;;;;;5015635;28;20742;-61
2023/04/24 11:48:20;;;;;;;10.77;9.77;;;14.10;99.90;;;;;;5008718;28;20825;-62
2023/04/24 11:50:51;;;;;;;10.20;9.30;;;14.00;99.90;;;;;;5003434;28;20471;-61
2023/04/24 11:53:21;;;;;;;10.73;9.83;;;14.00;99.90;;;;;;4997701;28;20859;-61
2023/04/24 11:55:49;;;;;;;10.50;9.60;;;14.00;99.90;;;;;;5008063;28;20491;-61
2023/04/24 11:58:22;;;;;;;9.83;9.00;;;14.00;99.90;;;;;;4991017;28;20491;-62
2023/04/24 12:00:57;;;;;;;9.10;8.30;;;13.90;99.90;;;;;;5014852;28;20483;-61
2023/04/24 12:03:25;;;;;;;9.67;8.83;;;13.90;99.90;;;;;;5011515;28;20872;-62
2023/04/24 12:06:05;;;;;;;9.27;8.37;;;13.90;99.90;;;;;;5014911;28;20472;-62
2023/04/24 12:08:33;;;;;;;9.60;8.67;;;13.90;99.90;;;;;;5007494;28;20487;-62
2023/04/24 12:11:04;;;;;;;9.07;8.27;;;13.90;99.90;;;;;;5008854;28;20519;-61
2023/04/24 12:13:33;;;;;;;8.20;7.60;;;14.00;99.90;;;;;;5015290;28;20476;-62
2023/04/24 12:16:04;;;;;;;9.43;8.23;;;14.10;99.90;;;;;;5012724;28;20862;-62
2023/04/24 12:18:32;;;;;;;8.40;7.70;;;14.10;99.90;;;;;;5009924;28;20523;-62
2023/04/24 12:21:30;;;;;;;9.73;8.83;;;14.20;99.90;;;;;;5007341;28;20491;-62
2023/04/24 12:23:58;;;;;;;8.60;7.80;;;14.30;99.90;;;;;;4981369;28;20504;-62
2023/04/24 12:26:26;;;;;;;7.63;7.03;;;14.20;99.90;;;;;;5002652;28;20475;-62
2023/04/24 12:28:55;;;;;;;8.43;7.60;;;14.00;99.90;;;;;;5006564;28;20502;-62
2023/04/24 12:31:23;;;;;;;8.87;8.17;;;14.00;99.90;;;;;;5011857;28;20960;-63
2023/04/24 12:33:51;;;;;;;7.70;7.07;;;14.00;99.90;;;;;;5012758;28;20459;-62
2023/04/24 12:36:22;;;;;;;7.43;6.83;;;13.90;99.90;;;;;;5012303;28;20479;-62
2023/04/24 12:38:54;;;;;;;9.33;8.53;;;13.90;99.90;;;;;;4997099;28;20512;-62
2023/04/24 12:41:22;;;;;;;8.50;7.53;;;13.80;99.90;;;;;;5002831;28;20483;-62
2023/04/24 12:43:55;;;;;;;9.30;8.60;;;13.80;99.90;;;;;;5007373;28;21441;-62
2023/04/24 12:46:23;;;;;;;8.53;7.90;;;13.70;99.90;;;;;;5009484;28;20482;-63
2023/04/24 12:48:51;;;;;;;8.20;7.50;;;13.60;99.90;;;;;;5008918;28;20826;-61
2023/04/24 12:51:19;;;;;;;8.47;7.67;;;13.60;99.90;;;;;;5013911;28;20491;-62
2023/04/24 12:53:47;;;;;;;9.13;8.33;;;13.50;99.90;;;;;;5012598;28;20464;-62
2023/04/24 12:56:15;;;;;;;8.97;8.27;;;13.40;99.90;;;;;;5010661;28;20499;-62